Time;durP1;ratioP1;P1;durP2;ratioP2;P2;SDS_P1;SDS_P2;PMS_P1;PMS_P2;Temp;Humidity;BMP_temperature;BMP_pressure;BME280_temperature;BME280_humidity;BME280_pressure;Samples;Min_cycle;Max_cycle;Signal;HPM_P1;HPM_P2
2023/01/07 00:00:49;;;;;;;;;;;10.70;99.90;;;;;;5052995;28;19909;-56
2023/01/07 00:03:15;;;;;;;;;;;10.70;99.90;;;;;;5053309;28;20011;-56
2023/01/07 00:05:41;;;;;;;;;;;10.70;99.90;;;;;;5053314;28;19932;-57
2023/01/07 00:08:07;;;;;;;;;;;10.70;99.90;;;;;;5052990;28;20360;-55
2023/01/07 00:10:33;;;;;;;;;;;10.80;99.90;;;;;;5052928;28;19999;-56
2023/01/07 00:12:58;;;;;;;;;;;10.70;99.90;;;;;;5053123;28;19916;-56
2023/01/07 00:15:24;;;;;;;;;;;10.80;99.90;;;;;;5053110;28;19916;-55
2023/01/07 00:17:50;;;;;;;;;;;10.80;99.90;;;;;;5052928;28;20281;-56
2023/01/07 00:20:15;;;;;;;;;;;10.70;99.90;;;;;;5052732;28;20254;-55
2023/01/07 00:22:41;;;;;;;;;;;10.70;99.90;;;;;;5052975;28;19909;-55
2023/01/07 00:25:07;;;;;;;;;;;10.80;99.90;;;;;;5052980;28;19963;-56
2023/01/07 00:27:32;;;;;;;;;;;10.80;99.90;;;;;;5052669;28;19920;-57
2023/01/07 00:29:58;;;;;;;;;;;10.70;99.90;;;;;;5052680;28;19916;-56
2023/01/07 00:32:46;;;;;;;;;;;10.70;99.90;;;;;;5050988;28;20554;-56
2023/01/07 00:35:21;;;;;;;;;;;10.70;99.90;;;;;;5052564;28;20012;-56
2023/01/07 00:37:48;;;;;;;;;;;10.70;99.90;;;;;;5052527;28;19934;-55
2023/01/07 00:40:14;;;;;;;;;;;10.70;99.90;;;;;;5052546;28;19913;-56
2023/01/07 00:43:00;;;;;;;;;;;10.70;99.90;;;;;;5052686;28;19909;-56
2023/01/07 00:45:27;;;;;;;;;;;10.70;99.90;;;;;;5052629;28;19909;-56
2023/01/07 00:47:53;;;;;;;;;;;10.80;99.90;;;;;;5052323;28;19909;-56
2023/01/07 00:50:19;;;;;;;;;;;10.70;99.90;;;;;;5050748;28;19915;-57
2023/01/07 00:52:45;;;;;;;;;;;10.70;99.90;;;;;;5052383;28;19916;-57
2023/01/07 00:55:11;;;;;;;;;;;10.70;99.90;;;;;;5051039;28;19916;-55
2023/01/07 00:57:36;;;;;;;;;;;10.70;99.90;;;;;;5050825;28;19912;-55
2023/01/07 01:00:02;;;;;;;;;;;10.70;99.90;;;;;;5052089;28;20377;-51
2023/01/07 01:02:28;;;;;;;;;;;10.70;99.90;;;;;;5050740;28;20479;-56
2023/01/07 01:04:53;;;;;;;;;;;10.80;99.90;;;;;;5052205;28;19984;-57
2023/01/07 01:07:19;;;;;;;;;;;10.80;99.90;;;;;;5051884;28;19915;-56
2023/01/07 01:09:45;;;;;;;;;;;10.80;99.90;;;;;;5051963;28;20280;-56
2023/01/07 01:12:10;;;;;;;;;;;10.90;99.90;;;;;;5050619;28;19904;-56
2023/01/07 01:14:36;;;;;;;;;;;10.90;99.90;;;;;;5051883;28;20449;-56
2023/01/07 01:17:01;;;;;;;;;;;10.90;99.90;;;;;;5051705;28;19908;-57
2023/01/07 01:19:27;;;;;;;;;;;10.90;99.90;;;;;;5051640;28;19916;-56
2023/01/07 01:21:53;;;;;;;;;;;10.90;99.90;;;;;;5050720;28;19916;-57
2023/01/07 01:24:19;;;;;;;;;;;10.90;99.90;;;;;;5050761;28;19909;-57
2023/01/07 01:26:45;;;;;;;;;;;10.90;99.90;;;;;;5051762;28;19912;-57
2023/01/07 01:29:11;;;;;;;;;;;10.90;99.90;;;;;;5052044;28;19954;-57
2023/01/07 01:31:37;;;;;;;;;;;10.80;99.90;;;;;;5050191;28;19908;-58
2023/01/07 01:34:03;;;;;;;;;;;10.80;99.90;;;;;;5050319;28;20365;-56
2023/01/07 01:36:29;;;;;;;;;;;10.80;99.90;;;;;;5050103;28;19935;-57
2023/01/07 01:38:57;;;;;;;;;;;10.80;99.90;;;;;;5050082;28;20387;-55
2023/01/07 01:41:25;;;;;;;;;;;10.80;99.90;;;;;;5050020;28;19913;-57
2023/01/07 01:43:52;;;;;;;;;;;10.90;99.90;;;;;;5049463;28;19909;-56
2023/01/07 01:46:35;;;;;;;;;;;10.90;99.90;;;;;;5051317;28;19908;-56
2023/01/07 01:49:04;;;;;;;;;;;10.90;99.90;;;;;;5050145;28;19909;-54
2023/01/07 01:51:35;;;;;;;;;;;10.90;99.90;;;;;;5051170;28;20273;-57
2023/01/07 01:54:04;;;;;;;;;;;10.90;99.90;;;;;;5049918;28;19919;-55
2023/01/07 01:56:32;;;;;;;;;;;10.90;99.90;;;;;;5049624;28;19909;-56
2023/01/07 01:59:00;;;;;;;;;;;10.90;99.90;;;;;;5049781;28;19909;-56
2023/01/07 02:01:25;;;;;;;;;;;10.90;99.90;;;;;;5049722;28;19954;-55
2023/01/07 02:03:52;;;;;;;;;;;10.90;99.90;;;;;;5049888;28;19915;-55
2023/01/07 02:06:21;;;;;;;;;;;10.90;99.90;;;;;;5049671;28;19909;-56
2023/01/07 02:08:47;;;;;;;;;;;10.90;99.90;;;;;;5049654;28;20427;-56
2023/01/07 02:11:16;;;;;;;;;;;10.90;99.90;;;;;;5049728;28;19908;-56
2023/01/07 02:13:54;;;;;;;;;;;10.90;99.90;;;;;;5049530;28;19919;-55
2023/01/07 02:16:34;;;;;;;;;;;10.90;99.90;;;;;;5049793;28;20015;-56
2023/01/07 02:19:19;;;;;;;;;;;10.90;99.90;;;;;;5050838;28;19931;-55
2023/01/07 02:21:59;;;;;;;;;;;10.90;99.90;;;;;;5050809;28;19963;-54
2023/01/07 02:24:43;;;;;;;;;;;10.80;99.90;;;;;;5049555;28;19913;-56
2023/01/07 02:27:15;;;;;;;;;;;10.80;99.90;;;;;;5049473;28;19948;-56
2023/01/07 02:29:41;;;;;;;;;;;10.80;99.90;;;;;;5049331;28;19952;-56
2023/01/07 02:32:16;;;;;;;;;;;10.80;99.90;;;;;;5049539;28;19944;-56
2023/01/07 02:35:00;;;;;;;;;;;10.80;99.90;;;;;;5049426;28;19919;-55
2023/01/07 02:37:31;;;;;;;;;;;10.80;99.90;;;;;;5050625;28;20277;-56
2023/01/07 02:40:10;;;;;;;;;;;10.80;99.90;;;;;;5049211;28;19908;-55
2023/01/07 02:42:41;;;;;;;;;;;10.80;99.90;;;;;;5049428;28;19924;-56
2023/01/07 02:45:16;;;;;;;;;;;10.80;99.90;;;;;;5049452;28;19908;-55
2023/01/07 02:47:46;;;;;;;;;;;10.80;99.90;;;;;;5049196;28;19920;-55
2023/01/07 02:50:12;;;;;;;;;;;10.80;99.90;;;;;;5050430;28;19909;-57
2023/01/07 02:52:38;;;;;;;;;;;10.80;99.90;;;;;;5049254;28;19908;-56
2023/01/07 02:55:12;;;;;;;;;;;10.80;99.90;;;;;;5052385;28;20077;-55
2023/01/07 02:57:57;;;;;;;;;;;10.80;99.90;;;;;;5053037;28;20282;-55
2023/01/07 03:00:28;;;;;;;;;;;10.80;99.90;;;;;;5054084;28;19908;-57
2023/01/07 03:03:13;;;;;;;;;;;10.80;99.90;;;;;;5064626;22;19924;-52
2023/01/07 03:05:57;;;;;;;;;;;10.80;99.90;;;;;;5053045;28;20426;-50
2023/01/07 03:08:46;;;;;;;;;;;10.80;99.90;;;;;;5054201;28;19909;-52
2023/01/07 03:11:12;;;;;;;;;;;10.70;99.90;;;;;;5053398;28;19915;-50
2023/01/07 03:13:43;;;;;;;;;;;10.70;99.90;;;;;;5052893;28;19943;-50
2023/01/07 03:16:11;;;;;;;;;;;10.70;99.90;;;;;;5052884;28;19909;-50
2023/01/07 03:18:39;;;;;;;;;;;10.70;99.90;;;;;;5052450;28;19908;-48
2023/01/07 03:21:08;;;;;;;;;;;10.70;99.90;;;;;;5052815;28;19967;-52
2023/01/07 03:23:36;;;;;;;;;;;10.60;99.90;;;;;;5054150;28;20000;-52
2023/01/07 03:26:03;;;;;;;;;;;10.60;99.90;;;;;;5054106;28;19916;-52
2023/01/07 03:28:31;;;;;;;;;;;10.50;99.90;;;;;;5053694;28;19951;-52
2023/01/07 03:30:57;;;;;;;;;;;10.50;99.90;;;;;;5052625;28;19941;-52
2023/01/07 03:33:25;;;;;;;;;;;10.50;99.90;;;;;;5052753;28;20027;-53
2023/01/07 03:35:54;;;;;;;;;;;10.50;99.90;;;;;;5053991;28;19916;-49
2023/01/07 03:38:21;;;;;;;;;;;10.50;99.90;;;;;;5052382;28;20042;-51
2023/01/07 03:40:49;;;;;;;;;;;10.60;99.90;;;;;;5052282;28;20320;-50
2023/01/07 03:43:18;;;;;;;;;;;10.60;99.90;;;;;;5054118;28;19913;-50
2023/01/07 03:45:44;;;;;;;;;;;10.60;99.90;;;;;;5053690;28;20361;-53
2023/01/07 03:48:09;;;;;;;;;;;10.50;99.90;;;;;;5052217;28;20384;-50
2023/01/07 03:50:37;;;;;;;;;;;10.50;99.90;;;;;;5052389;28;19951;-53
2023/01/07 03:53:03;;;;;;;;;;;10.50;99.90;;;;;;5053613;28;20054;-53
2023/01/07 03:55:32;;;;;;;;;;;10.50;99.90;;;;;;5052326;28;19913;-51
2023/01/07 03:57:58;;;;;;;;;;;10.50;99.90;;;;;;5052017;28;19948;-50
2023/01/07 04:00:24;;;;;;;;;;;10.40;99.90;;;;;;5051918;28;19916;-52
2023/01/07 04:02:57;;;;;;;;;;;10.50;99.90;;;;;;5052027;28;19913;-54
2023/01/07 04:05:31;;;;;;;;;;;10.40;99.90;;;;;;5052029;28;19956;-52
2023/01/07 04:07:57;;;;;;;;;;;10.40;99.90;;;;;;5051146;28;19999;-54
2023/01/07 04:10:24;;;;;;;;;;;10.40;99.90;;;;;;5051722;28;20304;-52
2023/01/07 04:12:50;;;;;;;;;;;10.30;99.90;;;;;;5051919;28;20373;-52
2023/01/07 04:15:16;;;;;;;;;;;10.30;99.90;;;;;;5053198;28;19909;-52
2023/01/07 04:17:42;;;;;;;;;;;10.30;99.90;;;;;;5052963;28;20344;-50
2023/01/07 04:20:09;;;;;;;;;;;10.30;99.90;;;;;;5052926;28;19908;-50
2023/01/07 04:22:35;;;;;;;;;;;10.30;99.90;;;;;;5051665;28;19955;-47
2023/01/07 04:25:00;;;;;;;;;;;10.30;99.90;;;;;;5051636;28;20325;-52
2023/01/07 04:27:26;;;;;;;;;;;10.30;99.90;;;;;;5051426;28;20365;-48
2023/01/07 04:29:52;;;;;;;;;;;10.30;99.90;;;;;;5052975;28;19917;-54
2023/01/07 04:32:18;;;;;;;;;;;10.20;99.90;;;;;;5051549;28;19908;-49
2023/01/07 04:34:44;;;;;;;;;;;10.30;99.90;;;;;;5051492;28;19920;-52
2023/01/07 04:37:11;;;;;;;;;;;10.20;99.90;;;;;;5051299;28;19910;-52
2023/01/07 04:39:36;;;;;;;;;;;10.20;99.90;;;;;;5051097;28;20274;-51
2023/01/07 04:42:02;;;;;;;;;;;10.10;99.90;;;;;;5051274;28;19915;-52
2023/01/07 04:44:28;;;;;;;;;;;10.10;99.90;;;;;;5051345;28;20331;-52
2023/01/07 04:46:55;;;;;;;;;;;10.10;99.90;;;;;;5051104;28;20285;-51
2023/01/07 04:49:21;;;;;;;;;;;10.20;99.90;;;;;;5052386;28;19915;-49
2023/01/07 04:51:47;;;;;;;;;;;10.10;99.90;;;;;;5051036;28;19908;-51
2023/01/07 04:54:13;;;;;;;;;;;10.10;99.90;;;;;;5051050;28;19912;-52
2023/01/07 04:56:38;;;;;;;;;;;10.20;99.90;;;;;;5050809;28;19963;-52
2023/01/07 04:59:04;;;;;;;;;;;10.10;99.90;;;;;;5050809;28;19919;-53
2023/01/07 05:01:31;;;;;;;;;;;10.10;99.90;;;;;;5050834;28;19909;-51
2023/01/07 05:03:57;;;;;;;;;;;10.10;99.90;;;;;;5052313;28;20439;-48
2023/01/07 05:06:24;;;;;;;;;;;10.10;99.90;;;;;;5050922;28;19919;-50
2023/01/07 05:08:50;;;;;;;;;;;10.10;99.90;;;;;;5050778;28;20357;-51
2023/01/07 05:11:20;;;;;;;;;;;10.10;99.90;;;;;;5050617;28;20384;-50
2023/01/07 05:13:48;;;;;;;;;;;10.10;99.90;;;;;;5050565;28;20373;-52
2023/01/07 05:16:14;;;;;;;;;;;10.00;99.90;;;;;;5050839;28;20537;-50
2023/01/07 05:18:41;;;;;;;;;;;10.00;99.90;;;;;;5049279;28;19908;-51
2023/01/07 05:21:09;;;;;;;;;;;10.00;99.90;;;;;;5050404;28;19909;-52
2023/01/07 05:23:35;;;;;;;;;;;10.00;99.90;;;;;;5034016;28;19908;-52
2023/01/07 05:26:01;;;;;;;;;;;10.00;99.90;;;;;;5050414;28;20437;-48
2023/01/07 05:28:29;;;;;;;;;;;10.00;99.90;;;;;;5050191;28;20001;-51
2023/01/07 05:30:55;;;;;;;;;;;9.90;99.90;;;;;;5051586;28;19952;-49
2023/01/07 05:33:21;;;;;;;;;;;9.90;99.90;;;;;;5050341;28;20440;-52
2023/01/07 05:35:47;;;;;;;;;;;9.90;99.90;;;;;;5050481;28;19996;-48
2023/01/07 05:38:14;;;;;;;;;;;10.00;99.90;;;;;;5050058;28;19916;-51
2023/01/07 05:40:42;;;;;;;;;;;9.90;99.90;;;;;;5049936;28;19915;-52
2023/01/07 05:43:09;;;;;;;;;;;9.90;99.90;;;;;;5050132;28;19909;-52
2023/01/07 05:45:35;;;;;;;;;;;9.90;99.90;;;;;;5050353;28;19909;-52
2023/01/07 05:48:01;;;;;;;;;;;9.90;99.90;;;;;;5051263;28;19908;-49
2023/01/07 05:50:26;;;;;;;;;;;9.80;99.90;;;;;;5051114;28;19915;-51
2023/01/07 05:52:52;;;;;;;;;;;9.80;99.90;;;;;;5051195;28;19915;-51
2023/01/07 05:55:18;;;;;;;;;;;9.80;99.90;;;;;;5051512;28;20007;-50
2023/01/07 05:57:43;;;;;;;;;;;9.70;99.90;;;;;;5050902;28;19908;-51
2023/01/07 06:00:09;;;;;;;;;;;9.70;99.90;;;;;;5051211;28;19955;-50
2023/01/07 06:02:38;;;;;;;;;;;9.70;99.90;;;;;;5051035;28;19940;-50
2023/01/07 06:05:03;;;;;;;;;;;9.70;99.90;;;;;;5051187;28;19952;-51
2023/01/07 06:07:29;;;;;;;;;;;9.60;99.90;;;;;;5051002;28;19908;-49
2023/01/07 06:09:54;;;;;;;;;;;9.60;99.90;;;;;;5051223;28;20000;-51
2023/01/07 06:12:20;;;;;;;;;;;9.60;99.90;;;;;;5050984;28;19909;-49
2023/01/07 06:14:46;;;;;;;;;;;9.50;99.90;;;;;;5051006;28;19913;-50
2023/01/07 06:17:11;;;;;;;;;;;9.50;99.90;;;;;;5050904;28;19908;-54
2023/01/07 06:19:37;;;;;;;;;;;9.50;99.90;;;;;;5050697;28;19913;-51
2023/01/07 06:22:02;;;;;;;;;;;9.40;99.90;;;;;;5050858;28;19943;-52
2023/01/07 06:24:28;;;;;;;;;;;9.40;99.90;;;;;;5051202;28;20361;-52
2023/01/07 06:26:54;;;;;;;;;;;9.40;99.90;;;;;;5050727;28;20050;-51
2023/01/07 06:29:19;;;;;;;;;;;9.40;99.90;;;;;;5051250;28;19943;-51
2023/01/07 06:31:45;;;;;;;;;;;9.40;99.90;;;;;;5054965;28;19915;-49
2023/01/07 06:34:10;;;;;;;;;;;9.40;99.90;;;;;;5054900;28;19912;-49
2023/01/07 06:36:36;;;;;;;;;;;9.30;99.90;;;;;;5054924;28;19915;-50
2023/01/07 06:39:02;;;;;;;;;;;9.30;99.90;;;;;;5054856;28;19909;-51
2023/01/07 06:41:27;;;;;;;;;;;9.30;99.90;;;;;;5054757;28;19948;-51
2023/01/07 06:43:53;;;;;;;;;;;9.20;99.90;;;;;;5054983;28;20130;-52
2023/01/07 06:46:18;;;;;;;;;;;9.30;99.90;;;;;;5055154;28;19955;-52
2023/01/07 06:48:44;;;;;;;;;;;9.30;99.90;;;;;;5055010;28;19913;-49
2023/01/07 06:51:10;;;;;;;;;;;9.30;99.90;;;;;;5054628;28;19915;-53
2023/01/07 06:53:35;;;;;;;;;;;9.30;99.90;;;;;;5054861;28;20007;-50
2023/01/07 06:56:01;;;;;;;;;;;9.30;99.90;;;;;;5054586;28;19915;-49
2023/01/07 06:58:26;;;;;;;;;;;9.30;99.90;;;;;;5054411;28;19915;-55
2023/01/07 07:00:52;;;;;;;;;;;9.40;99.90;;;;;;5054327;28;19951;-48
2023/01/07 07:03:18;;;;;;;;;;;9.40;99.90;;;;;;5054264;28;19995;-49
2023/01/07 07:05:43;;;;;;;;;;;9.40;99.90;;;;;;5054690;28;19909;-52
2023/01/07 07:08:09;;;;;;;;;;;9.50;99.90;;;;;;5054085;28;19912;-51
2023/01/07 07:10:35;;;;;;;;;;;9.50;99.90;;;;;;5054424;28;20269;-48
2023/01/07 07:13:00;;;;;;;;;;;9.60;99.90;;;;;;5054145;28;19913;-49
2023/01/07 07:15:26;;;;;;;;;;;9.60;99.90;;;;;;5054359;28;20376;-53
2023/01/07 07:17:51;;;;;;;;;;;9.70;99.90;;;;;;5053965;28;19916;-50
2023/01/07 07:20:17;;;;;;;;;;;9.70;99.90;;;;;;5054055;28;20403;-49
2023/01/07 07:22:43;;;;;;;;;;;9.70;99.90;;;;;;5054008;28;19915;-51
2023/01/07 07:25:09;;;;;;;;;;;9.80;99.90;;;;;;5054208;28;19997;-48
2023/01/07 07:27:35;;;;;;;;;;;9.90;99.90;;;;;;5053803;28;20353;-49
2023/01/07 07:30:00;;;;;;;;;;;9.90;99.90;;;;;;5053760;28;20266;-51
2023/01/07 07:32:27;;;;;;;;;;;9.90;99.90;;;;;;5053763;28;19916;-50
2023/01/07 07:34:54;;;;;;;;;;;10.00;99.90;;;;;;5053910;28;19912;-49
2023/01/07 07:37:19;;;;;;;;;;;10.00;99.90;;;;;;5053693;28;19940;-49
2023/01/07 07:39:45;;;;;;;;;;;10.00;99.90;;;;;;5053660;28;19943;-48
2023/01/07 07:42:10;;;;;;;;;;;10.00;99.90;;;;;;5052622;28;19919;-48
2023/01/07 07:44:36;;;;;;;;;;;10.10;99.90;;;;;;5053836;28;19915;-49
2023/01/07 07:47:02;;;;;;;;;;;10.10;99.90;;;;;;5053482;28;20302;-48
2023/01/07 07:49:27;;;;;;;;;;;10.10;99.90;;;;;;5053471;28;19955;-48
2023/01/07 07:51:53;;;;;;;;;;;10.10;99.90;;;;;;5053475;28;19908;-47
2023/01/07 07:54:19;;;;;;;;;;;10.10;99.90;;;;;;5053512;28;19912;-50
2023/01/07 07:56:45;;;;;;;;;;;10.10;99.90;;;;;;5053403;28;19916;-48
2023/01/07 07:59:10;;;;;;;;;;;10.10;99.90;;;;;;5053342;28;19912;-49
2023/01/07 08:01:36;;;;;;;;;;;10.20;99.90;;;;;;5053090;28;19908;-47
2023/01/07 08:04:01;;;;;;;;;;;10.10;99.90;;;;;;5053439;28;19909;-49
2023/01/07 08:06:27;;;;;;;;;;;10.20;99.90;;;;;;5053213;28;19994;-48
2023/01/07 08:08:52;;;;;;;;;;;10.20;99.90;;;;;;5053191;28;19919;-48
2023/01/07 08:11:18;;;;;;;;;;;10.30;99.90;;;;;;5053191;28;19939;-47
2023/01/07 08:13:44;;;;;;;;;;;10.30;99.90;;;;;;5053156;28;19974;-46
2023/01/07 08:16:09;;;;;;;;;;;10.30;99.90;;;;;;5053678;28;19909;-49
2023/01/07 08:18:35;;;;;;;;;;;10.30;99.90;;;;;;5052844;28;20008;-50
2023/01/07 08:21:00;;;;;;;;;;;10.30;99.90;;;;;;5052930;28;19908;-48
2023/01/07 08:23:27;;;;;;;;;;;10.30;99.90;;;;;;5052945;28;19915;-50
2023/01/07 08:25:53;;;;;;;;;;;10.40;99.90;;;;;;5053115;28;20309;-53
2023/01/07 08:28:18;;;;;;;;;;;10.30;99.90;;;;;;5052752;28;19971;-54
2023/01/07 08:30:44;;;;;;;;;;;10.40;99.90;;;;;;5052676;28;19916;-52
2023/01/07 08:33:09;;;;;;;;;;;10.40;99.90;;;;;;5052786;28;19915;-48
2023/01/07 08:35:35;;;;;;;;;;;10.40;99.90;;;;;;5052868;28;19912;-51
2023/01/07 08:38:02;;;;;;;;;;;10.40;99.90;;;;;;5052602;28;19917;-49
2023/01/07 08:40:27;;;;;;;;;;;10.50;99.90;;;;;;5052450;28;19908;-51
2023/01/07 08:42:56;;;;;;;;;;;10.40;99.90;;;;;;5052569;28;19931;-50
2023/01/07 08:45:21;;;;;;;;;;;10.40;99.90;;;;;;5052670;28;19994;-49
2023/01/07 08:47:47;;;;;;;;;;;10.50;99.90;;;;;;5052375;28;19951;-50
2023/01/07 08:50:13;;;;;;;;;;;10.50;99.90;;;;;;5052348;28;19908;-53
2023/01/07 08:52:39;;;;;;;;;;;10.50;99.90;;;;;;5052249;28;19908;-50
2023/01/07 08:55:05;;;;;;;;;;;10.50;99.90;;;;;;5052803;28;19919;-49
2023/01/07 08:57:31;;;;;;;;;;;10.50;99.90;;;;;;5052253;28;19909;-51
2023/01/07 08:59:56;;;;;;;;;;;10.50;99.90;;;;;;5052027;28;19908;-49
2023/01/07 09:02:22;;;;;;;;;;;10.60;99.90;;;;;;5064316;22;19921;-60
2023/01/07 09:04:47;;;;;;;;;;;10.60;99.90;;;;;;5052421;28;19970;-60
2023/01/07 09:07:13;;;;;;;;;;;10.70;99.90;;;;;;5051967;28;19909;-59
2023/01/07 09:09:38;;;;;;;;;;;10.70;99.90;;;;;;5052029;28;19909;-59
2023/01/07 09:12:04;;;;;;;;;;;10.70;99.90;;;;;;5052042;28;19904;-60
2023/01/07 09:14:30;;;;;;;;;;;10.70;99.90;;;;;;5051935;28;19927;-60
2023/01/07 09:16:56;;;;;;;;;;;10.70;99.90;;;;;;5051917;28;19908;-60
2023/01/07 09:19:22;;;;;;;;;;;10.70;99.90;;;;;;5051729;28;20270;-60
2023/01/07 09:21:47;;;;;;;;;;;10.70;99.90;;;;;;5051794;28;20001;-60
2023/01/07 09:24:13;;;;;;;;;;;10.70;99.90;;;;;;5051939;28;19908;-60
2023/01/07 09:26:38;;;;;;;;;;;10.70;99.90;;;;;;5051745;28;19913;-60
2023/01/07 09:29:04;;;;;;;;;;;10.70;99.90;;;;;;5051470;28;20372;-60
2023/01/07 09:31:30;;;;;;;;;;;10.70;99.90;;;;;;5051863;28;19943;-60
2023/01/07 09:33:55;;;;;;;;;;;10.70;99.90;;;;;;5051858;28;20380;-60
2023/01/07 09:36:21;;;;;;;;;;;10.70;99.90;;;;;;5051717;28;19997;-60
2023/01/07 09:38:46;;;;;;;;;;;10.70;99.90;;;;;;5051502;28;19909;-60
2023/01/07 09:41:35;;;;;;;;;;;10.70;99.90;;;;;;5051639;28;19932;-60
2023/01/07 09:44:19;;;;;;;;;;;10.70;99.90;;;;;;5013551;28;19920;-60
2023/01/07 09:46:46;;;;;;;;;;;10.70;99.90;;;;;;5051470;28;19916;-59
2023/01/07 09:49:17;;;;;;;;;;;10.70;99.90;;;;;;5051204;28;19913;-60
2023/01/07 09:51:45;;;;;;;;;;;10.70;99.90;;;;;;5051318;28;19916;-60
2023/01/07 09:54:22;;;;;;;;;;;10.70;99.90;;;;;;5051320;28;19912;-60
2023/01/07 09:56:49;;;;;;;;;;;10.90;99.90;;;;;;5051218;28;19913;-61
2023/01/07 09:59:16;;;;;;;;;;;10.90;99.90;;;;;;5051041;28;19909;-60
2023/01/07 10:02:01;;;;;;;;;;;11.00;99.90;;;;;;5051158;28;20296;-60
2023/01/07 10:04:33;;;;;;;;;;;11.10;99.90;;;;;;5050018;28;19913;-61
2023/01/07 10:07:17;;;;;;;;;;;11.50;99.90;;;;;;5050982;28;20046;-60
2023/01/07 10:09:46;;;;;;;;;;;12.00;99.90;;;;;;5050925;28;19913;-60
2023/01/07 10:12:17;;;;;;;;;;;12.70;99.90;;;;;;5051044;28;19909;-60
2023/01/07 10:14:57;;;;;;;;;;;13.40;99.90;;;;;;5051531;28;20019;-61
2023/01/07 10:17:43;;;;;;;;;;;13.80;99.90;;;;;;5051046;28;20375;-61
2023/01/07 10:20:21;;;;;;;;;;;14.40;99.90;;;;;;5050974;28;20352;-61
2023/01/07 10:23:02;;;;;;;;;;;14.80;99.90;;;;;;5050953;28;20353;-61
2023/01/07 10:25:51;;;;;;;;;;;15.20;99.90;;;;;;5051049;28;19920;-61
2023/01/07 10:28:21;;;;;;;;;;;15.70;99.90;;;;;;5040087;28;19913;-61
2023/01/07 10:30:50;;;;;;;;;;;15.90;99.90;;;;;;5050851;28;19962;-61
2023/01/07 10:33:16;;;;;;;;;;;16.40;99.90;;;;;;5050721;28;19919;-61
2023/01/07 10:35:41;;;;;;;;;;;16.40;99.90;;;;;;5050745;28;19987;-61
2023/01/07 10:38:13;;;;;;;;;;;16.50;99.90;;;;;;5050661;28;19908;-60
2023/01/07 10:40:42;;;;;;;;;;;16.40;99.90;;;;;;5050653;28;19916;-60
2023/01/07 10:43:23;;;;;;;;;;;17.00;99.90;;;;;;5050823;28;19952;-61
2023/01/07 10:45:48;;;;;;;;;;;17.00;99.60;;;;;;5051370;28;20287;-60
2023/01/07 10:48:14;;;;;;;;;;;17.20;99.20;;;;;;5050475;28;19991;-60
2023/01/07 10:50:59;;;;;;;;;;;17.30;98.90;;;;;;5050416;28;19955;-60
2023/01/07 10:53:25;;;;;;;;;;;17.40;98.50;;;;;;5050647;28;19999;-60
2023/01/07 10:55:56;;;;;;;;;;;17.20;98.90;;;;;;5050826;28;20380;-60
2023/01/07 10:58:21;;;;;;;;;;;16.90;99.00;;;;;;5049238;28;19915;-60
2023/01/07 11:00:47;;;;;;;;;;;16.70;99.40;;;;;;5050468;28;20015;-60
2023/01/07 11:03:20;;;;;;;;;;;16.60;99.40;;;;;;5050368;28;19920;-60
2023/01/07 11:05:47;;;;;;;;;;;16.20;99.80;;;;;;5050577;28;19909;-60
2023/01/07 11:08:31;;;;;;;;;;;15.90;99.90;;;;;;5050441;28;20003;-60
2023/01/07 11:10:57;;;;;;;;;;;15.40;99.90;;;;;;5049184;28;20007;-60
2023/01/07 11:13:27;;;;;;;;;;;14.70;99.90;;;;;;5050395;28;20011;-60
2023/01/07 11:15:59;;;;;;;;;;;14.10;99.90;;;;;;5051822;28;19908;-61
2023/01/07 11:18:29;;;;;;;;;;;13.80;99.90;;;;;;5054143;28;19908;-60
2023/01/07 11:20:56;;;;;;;;;;;13.40;99.90;;;;;;5054249;28;19909;-60
2023/01/07 11:23:31;;;;;;;;;;;13.20;99.90;;;;;;5054137;28;19995;-61
2023/01/07 11:26:11;;;;;;;;;;;13.00;99.90;;;;;;5054301;28;19909;-60
2023/01/07 11:28:40;;;;;;;;;;;13.00;99.90;;;;;;5053809;28;20187;-61
2023/01/07 11:31:06;;;;;;;;;;;12.90;99.90;;;;;;5054113;28;19955;-61
2023/01/07 11:33:36;;;;;;;;;;;12.70;99.90;;;;;;5053899;28;19916;-61
2023/01/07 11:36:03;;;;;;;;;;;12.50;99.90;;;;;;5053946;28;20003;-61
2023/01/07 11:38:30;;;;;;;;;;;12.50;99.90;;;;;;5053851;28;19962;-64
2023/01/07 11:40:57;;;;;;;;;;;12.30;99.90;;;;;;5053810;28;20270;-61
2023/01/07 11:43:23;;;;;;;;;;;12.30;99.90;;;;;;5053745;28;19909;-61
2023/01/07 11:45:50;;;;;;;;;;;12.20;99.90;;;;;;5053767;28;19956;-61
2023/01/07 11:48:36;;;;;;;;;;;12.10;99.90;;;;;;5053569;28;20326;-60
2023/01/07 11:51:03;;;;;;;;;;;12.10;99.90;;;;;;5052994;28;19991;-60
2023/01/07 11:53:58;;;;;;;;;;;12.20;99.90;;;;;;5053624;28;19912;-60
2023/01/07 11:56:28;;;;;;;;;;;12.20;99.90;;;;;;5035838;28;19912;-60
2023/01/07 11:59:12;;;;;;;;;;;12.20;99.90;;;;;;5053352;28;19948;-60
2023/01/07 12:01:42;;;;;;;;;;;12.10;99.90;;;;;;5053220;28;20343;-59
2023/01/07 12:04:11;;;;;;;;;;;12.30;99.90;;;;;;5053613;28;19913;-60
2023/01/07 12:06:39;;;;;;;;;;;12.70;99.90;;;;;;5052018;28;19909;-60
2023/01/07 12:09:19;;;;;;;;;;;13.20;99.90;;;;;;5053221;28;19928;-60
2023/01/07 12:11:45;;;;;;;;;;;13.50;99.90;;;;;;5053313;28;19912;-61
2023/01/07 12:14:20;;;;;;;;;;;13.40;99.90;;;;;;5053148;28;19938;-60
2023/01/07 12:16:46;;;;;;;;;;;13.00;99.90;;;;;;5053037;28;19909;-61
2023/01/07 12:19:11;;;;;;;;;;;12.60;99.90;;;;;;5052841;28;19915;-61
2023/01/07 12:22:03;;;;;;;;;;;12.50;99.90;;;;;;5053101;28;20103;-61
2023/01/07 12:24:38;;;;;;;;;;;12.50;99.90;;;;;;5022070;28;19977;-60
2023/01/07 12:27:04;;;;;;;;;;;12.70;99.90;;;;;;5051051;28;20417;-60
2023/01/07 12:29:45;;;;;;;;;;;13.20;99.90;;;;;;5052840;28;19952;-60
2023/01/07 12:32:10;;;;;;;;;;;13.50;99.90;;;;;;5052819;28;19909;-60
2023/01/07 12:34:48;;;;;;;;;;;13.90;99.90;;;;;;5052922;28;19908;-60
2023/01/07 12:37:25;;;;;;;;;;;14.20;99.90;;;;;;5052701;28;19948;-60
2023/01/07 12:39:54;;;;;;;;;;;14.30;99.90;;;;;;5052544;28;19915;-61
2023/01/07 12:42:23;;;;;;;;;;;14.70;99.90;;;;;;5052673;28;19932;-59
2023/01/07 12:44:51;;;;;;;;;;;14.90;99.90;;;;;;5052608;28;19912;-61
2023/01/07 12:47:22;;;;;;;;;;;15.50;99.90;;;;;;5052727;28;19909;-60
2023/01/07 12:50:05;;;;;;;;;;;16.10;99.00;;;;;;5052531;28;19919;-60
2023/01/07 12:52:38;;;;;;;;;;;16.80;96.10;;;;;;5052417;28;19909;-60
2023/01/07 12:55:22;;;;;;;;;;;17.10;94.80;;;;;;5052460;28;20003;-60
2023/01/07 12:57:57;;;;;;;;;;;16.80;93.80;;;;;;5052401;28;19983;-60
2023/01/07 13:00:25;;;;;;;;;;;17.00;92.70;;;;;;5052063;28;19912;-60
2023/01/07 13:03:10;;;;;;;;;;;16.60;93.20;;;;;;5052230;28;20007;-60
2023/01/07 13:05:47;;;;;;;;;;;16.40;93.80;;;;;;5052229;28;19963;-60
2023/01/07 13:08:31;;;;;;;;;;;16.40;93.10;;;;;;5052080;28;19909;-60
2023/01/07 13:11:01;;;;;;;;;;;16.20;93.00;;;;;;5052207;28;19909;-61
2023/01/07 13:13:37;;;;;;;;;;;15.60;94.30;;;;;;5051950;28;19947;-60
2023/01/07 13:16:04;;;;;;;;;;;15.50;95.00;;;;;;5052083;28;19909;-60
2023/01/07 13:18:29;;;;;;;;;;;14.90;95.40;;;;;;5051836;28;19909;-60
2023/01/07 13:21:11;;;;;;;;;;;14.50;96.60;;;;;;5051941;28;20312;-60
2023/01/07 13:23:56;;;;;;;;;;;14.50;97.30;;;;;;5051964;28;19908;-60
2023/01/07 13:26:40;;;;;;;;;;;14.50;97.30;;;;;;5051641;28;19915;-60
2023/01/07 13:29:08;;;;;;;;;;;14.50;97.40;;;;;;5051860;28;19915;-60
2023/01/07 13:31:53;;;;;;;;;;;14.40;97.40;;;;;;5051598;28;19909;-60
2023/01/07 13:34:21;;;;;;;;;;;14.30;97.80;;;;;;5051652;28;20333;-61
2023/01/07 13:36:53;;;;;;;;;;;14.20;98.00;;;;;;5051577;28;20153;-59
2023/01/07 13:39:25;;;;;;;;;;;14.10;98.60;;;;;;5050697;28;19943;-59
2023/01/07 13:42:13;;;;;;;;;;;13.90;99.10;;;;;;5051492;28;19909;-59
2023/01/07 13:44:42;;;;;;;;;;;13.90;99.40;;;;;;5051503;28;19912;-59
2023/01/07 13:47:09;;;;;;;;;;;14.10;98.60;;;;;;5051412;28;20308;-59
2023/01/07 13:49:35;;;;;;;;;;;14.10;98.80;;;;;;5051595;28;19912;-60
2023/01/07 13:52:20;;;;;;;;;;;14.00;99.40;;;;;;5051408;28;19961;-60
2023/01/07 13:54:49;;;;;;;;;;;13.50;99.90;;;;;;5051280;28;19920;-60
2023/01/07 13:57:30;;;;;;;;;;;13.40;99.90;;;;;;5051559;28;19909;-60
2023/01/07 13:59:56;;;;;;;;;;;13.10;99.90;;;;;;5051084;28;19912;-59
2023/01/07 14:02:23;;;;;;;;;;;13.00;99.90;;;;;;5051239;28;19912;-59
2023/01/07 14:04:49;;;;;;;;;;;12.80;99.90;;;;;;5051289;28;19913;-59
2023/01/07 14:07:16;;;;;;;;;;;12.70;99.90;;;;;;5051018;28;19909;-59
2023/01/07 14:09:41;;;;;;;;;;;12.60;99.90;;;;;;5051059;28;19904;-59
2023/01/07 14:12:20;;;;;;;;;;;12.70;99.90;;;;;;5051207;28;19915;-59
2023/01/07 14:14:52;;;;;;;;;;;12.70;99.90;;;;;;5051130;28;20008;-60
2023/01/07 14:17:26;;;;;;;;;;;12.70;99.90;;;;;;5051064;28;19916;-59
2023/01/07 14:20:11;;;;;;;;;;;12.70;99.90;;;;;;5051177;28;19932;-59
2023/01/07 14:22:52;;;;;;;;;;;12.70;99.90;;;;;;5050971;28;19908;-60
2023/01/07 14:25:33;;;;;;;;;;;12.50;99.90;;;;;;5051049;28;19915;-60
2023/01/07 14:27:58;;;;;;;;;;;12.40;99.90;;;;;;5050848;28;19912;-60
2023/01/07 14:30:27;;;;;;;;;;;12.30;99.90;;;;;;5050785;28;19954;-60